Time;durP1;ratioP1;P1;durP2;ratioP2;P2;SDS_P1;SDS_P2;PMS_P1;PMS_P2;Temp;Humidity;BMP_temperature;BMP_pressure;BME280_temperature;BME280_humidity;BME280_pressure;Samples;Min_cycle;Max_cycle;Signal;HPM_P1;HPM_P2
2021/09/09 00:01:33;;;;;;;12.40;11.13;;;;;;;;;;5016121;28;20519;-77
2021/09/09 00:04:00;;;;;;;11.97;10.77;;;;;;;;;;5016202;28;20877;-76
2021/09/09 00:06:26;;;;;;;12.73;11.50;;;;;;;;;;5016107;28;20440;-76
2021/09/09 00:08:52;;;;;;;12.70;11.40;;;;;;;;;;5015781;28;20956;-77
2021/09/09 00:11:19;;;;;;;13.20;11.87;;;;;;;;;;5015925;28;20501;-76
2021/09/09 00:13:45;;;;;;;12.80;11.50;;;;;;;;;;5016070;28;20504;-74
2021/09/09 00:16:11;;;;;;;12.37;11.23;;;;;;;;;;5028295;28;20532;-74
2021/09/09 00:18:37;;;;;;;12.17;10.97;;;;;;;;;;5018723;28;20440;-76
2021/09/09 00:21:04;;;;;;;12.33;11.13;;;;;;;;;;5027007;28;20944;-74
2021/09/09 00:23:30;;;;;;;14.23;12.60;;;;;;;;;;5035734;28;20417;-75
2021/09/09 00:25:56;;;;;;;12.10;10.87;;;;;;;;;;5035685;28;20455;-76
2021/09/09 00:28:22;;;;;;;13.30;12.00;;;;;;;;;;5035271;28;20456;-78
2021/09/09 00:30:51;;;;;;;11.30;10.20;;;;;;;;;;5035557;28;20421;-74
2021/09/09 00:33:17;;;;;;;12.43;11.23;;;;;;;;;;5035308;28;20732;-76
2021/09/09 00:35:43;;;;;;;12.17;10.90;;;;;;;;;;5039573;28;20412;-74
2021/09/09 00:38:09;;;;;;;15.70;11.30;;;;;;;;;;5016647;28;20409;-73
2021/09/09 00:40:35;;;;;;;11.90;10.70;;;;;;;;;;5015911;28;20752;-73
2021/09/09 00:43:01;;;;;;;12.33;11.03;;;;;;;;;;5015469;28;20413;-75
2021/09/09 00:45:27;;;;;;;12.50;11.20;;;;;;;;;;5016063;28;20417;-75
2021/09/09 00:47:53;;;;;;;12.83;11.53;;;;;;;;;;5014771;28;20917;-76
2021/09/09 00:50:19;;;;;;;12.57;11.30;;;;;;;;;;5016027;28;20418;-76
2021/09/09 00:52:47;;;;;;;12.93;11.80;;;;;;;;;;5015415;28;20488;-74
2021/09/09 00:55:13;;;;;;;14.80;11.63;;;;;;;;;;5015541;28;20445;-75
2021/09/09 00:57:40;;;;;;;14.33;12.33;;;;;;;;;;5014925;28;20406;-74
2021/09/09 01:00:07;;;;;;;12.87;11.40;;;;;;;;;;5015158;28;20799;-76
2021/09/09 01:02:33;;;;;;;14.40;12.27;;;;;;;;;;5015225;28;20779;-73
2021/09/09 01:04:59;;;;;;;12.90;11.67;;;;;;;;;;5015216;28;20413;-76
2021/09/09 01:07:25;;;;;;;13.90;12.07;;;;;;;;;;5013398;28;20441;-74
2021/09/09 01:09:52;;;;;;;13.33;11.70;;;;;;;;;;5015391;28;20441;-76
2021/09/09 01:12:18;;;;;;;15.20;12.30;;;;;;;;;;5014850;28;20788;-73
2021/09/09 01:14:44;;;;;;;12.30;11.07;;;;;;;;;;5014994;28;20790;-76
2021/09/09 01:17:10;;;;;;;13.27;12.07;;;;;;;;;;5033897;28;20471;-75
2021/09/09 01:19:36;;;;;;;12.40;11.20;;;;;;;;;;5034730;28;20439;-75
2021/09/09 01:22:03;;;;;;;14.40;12.93;;;;;;;;;;5034518;28;20416;-76
2021/09/09 01:24:30;;;;;;;14.60;13.27;;;;;;;;;;5034670;28;20424;-73
2021/09/09 01:27:04;;;;;;;17.03;13.00;;;;;;;;;;5033143;28;20432;-74
2021/09/09 01:29:32;;;;;;;13.73;12.33;;;;;;;;;;5031673;28;20446;-74
2021/09/09 01:31:58;;;;;;;14.00;12.73;;;;;;;;;;5014508;28;20476;-73
2021/09/09 01:34:25;;;;;;;12.40;11.10;;;;;;;;;;5014617;28;20457;-75
2021/09/09 01:36:51;;;;;;;13.97;12.57;;;;;;;;;;5024410;28;20928;-75
2021/09/09 01:39:17;;;;;;;14.73;13.23;;;;;;;;;;5014613;28;20468;-76
2021/09/09 01:41:43;;;;;;;14.03;12.53;;;;;;;;;;5014540;28;20413;-73
2021/09/09 01:44:09;;;;;;;14.23;12.77;;;;;;;;;;5014495;28;20416;-73
2021/09/09 01:46:35;;;;;;;14.20;12.80;;;;;;;;;;5013372;28;20414;-74
2021/09/09 01:49:01;;;;;;;13.00;11.60;;;;;;;;;;5014476;28;20465;-73
2021/09/09 01:51:27;;;;;;;14.07;12.40;;;;;;;;;;5014353;28;20461;-75
2021/09/09 01:53:54;;;;;;;13.33;11.93;;;;;;;;;;5014520;28;20418;-73
2021/09/09 01:56:20;;;;;;;14.50;13.03;;;;;;;;;;5014058;28;20424;-74
2021/09/09 01:58:46;;;;;;;15.33;13.70;;;;;;;;;;5013691;28;20434;-76
2021/09/09 02:01:12;;;;;;;14.40;13.00;;;;;;;;;;5012948;28;20807;-73
2021/09/09 02:03:38;;;;;;;14.80;13.33;;;;;;;;;;5014021;28;20479;-76
2021/09/09 02:06:04;;;;;;;13.53;12.23;;;;;;;;;;5014017;28;20469;-73
2021/09/09 02:08:30;;;;;;;14.60;12.87;;;;;;;;;;5013311;28;20448;-74
2021/09/09 02:10:56;;;;;;;14.63;13.23;;;;;;;;;;5012928;28;20428;-73
2021/09/09 02:13:22;;;;;;;15.57;14.07;;;;;;;;;;5013786;28;20767;-76
2021/09/09 02:15:48;;;;;;;15.47;13.87;;;;;;;;;;5023309;28;20777;-72
2021/09/09 02:18:14;;;;;;;13.13;11.73;;;;;;;;;;5030344;28;20468;-75
2021/09/09 02:20:40;;;;;;;15.50;13.80;;;;;;;;;;5022846;28;20410;-74
2021/09/09 02:23:06;;;;;;;15.93;13.53;;;;;;;;;;5033505;28;20743;-74
2021/09/09 02:25:32;;;;;;;15.17;13.57;;;;;;;;;;5033557;28;20416;-72
2021/09/09 02:27:58;;;;;;;15.40;13.23;;;;;;;;;;5033078;28;20415;-74
2021/09/09 02:30:26;;;;;;;14.03;12.63;;;;;;;;;;5024258;28;20423;-73
2021/09/09 02:32:52;;;;;;;17.00;13.47;;;;;;;;;;5016197;28;20503;-74
2021/09/09 02:35:18;;;;;;;14.53;13.03;;;;;;;;;;5026426;28;20834;-73
2021/09/09 02:37:44;;;;;;;16.50;14.33;;;;;;;;;;5021739;28;20895;-74
2021/09/09 02:40:12;;;;;;;17.50;12.07;;;;;;;;;;5013689;28;20455;-76
2021/09/09 02:42:38;;;;;;;15.27;13.73;;;;;;;;;;5013426;28;20417;-75
2021/09/09 02:45:04;;;;;;;15.70;14.10;;;;;;;;;;5013411;28;20420;-76
2021/09/09 02:47:30;;;;;;;16.57;14.87;;;;;;;;;;5013117;28;20421;-77
2021/09/09 02:49:56;;;;;;;15.43;13.93;;;;;;;;;;5013503;28;20502;-75
2021/09/09 02:52:22;;;;;;;16.57;14.77;;;;;;;;;;5013267;28;20491;-73
2021/09/09 02:54:48;;;;;;;15.50;13.87;;;;;;;;;;5013359;28;20412;-76
2021/09/09 02:57:14;;;;;;;15.33;13.73;;;;;;;;;;5012733;28;20918;-73
2021/09/09 02:59:40;;;;;;;15.40;13.80;;;;;;;;;;5013366;28;20512;-73
2021/09/09 03:02:06;;;;;;;17.83;13.47;;;;;;;;;;5013305;28;20495;-75
2021/09/09 03:04:32;;;;;;;16.60;14.87;;;;;;;;;;5013506;28;20504;-75
2021/09/09 03:06:58;;;;;;;19.17;16.67;;;;;;;;;;5012534;28;20471;-77
2021/09/09 03:09:24;;;;;;;15.97;14.37;;;;;;;;;;5013259;28;20433;-74
2021/09/09 03:11:50;;;;;;;16.33;14.17;;;;;;;;;;5013139;28;20962;-74
2021/09/09 03:14:17;;;;;;;15.27;13.67;;;;;;;;;;5013082;28;20421;-76
2021/09/09 03:16:43;;;;;;;16.70;15.00;;;;;;;;;;5028195;28;20415;-75
2021/09/09 03:19:10;;;;;;;15.33;13.83;;;;;;;;;;5024164;28;20486;-77
2021/09/09 03:21:36;;;;;;;17.43;14.70;;;;;;;;;;5013082;28;20434;-76
2021/09/09 03:24:02;;;;;;;17.50;15.70;;;;;;;;;;5013106;28;20417;-73
2021/09/09 03:26:28;;;;;;;17.97;16.07;;;;;;;;;;5012235;28;20437;-73
2021/09/09 03:28:54;;;;;;;16.50;14.77;;;;;;;;;;5015216;28;20447;-76
2021/09/09 03:31:20;;;;;;;17.57;15.80;;;;;;;;;;5015464;28;20487;-74
2021/09/09 03:33:46;;;;;;;16.93;15.13;;;;;;;;;;5012826;28;20413;-73
2021/09/09 03:36:12;;;;;;;18.37;16.50;;;;;;;;;;5011702;28;20495;-73
2021/09/09 03:38:38;;;;;;;15.13;13.43;;;;;;;;;;5012664;28;21012;-75
2021/09/09 03:41:04;;;;;;;18.97;16.03;;;;;;;;;;5013065;28;20428;-75
2021/09/09 03:43:30;;;;;;;17.83;16.03;;;;;;;;;;5012869;28;20420;-73
2021/09/09 03:45:56;;;;;;;17.37;15.57;;;;;;;;;;5013094;28;20427;-75
2021/09/09 03:48:22;;;;;;;17.07;15.30;;;;;;;;;;5012477;28;20502;-74
2021/09/09 03:50:48;;;;;;;17.43;15.73;;;;;;;;;;5012859;28;20424;-76
2021/09/09 03:53:14;;;;;;;17.83;15.03;;;;;;;;;;5012704;28;20419;-76
2021/09/09 03:55:40;;;;;;;20.10;16.50;;;;;;;;;;5012781;28;20897;-72
2021/09/09 03:58:06;;;;;;;19.00;17.00;;;;;;;;;;5012723;28;20413;-73
2021/09/09 04:00:32;;;;;;;19.57;17.60;;;;;;;;;;5012868;28;20416;-74
2021/09/09 04:02:59;;;;;;;19.43;16.67;;;;;;;;;;5012747;28;20456;-73
2021/09/09 04:05:25;;;;;;;20.43;17.17;;;;;;;;;;5012867;28;20849;-76
2021/09/09 04:07:51;;;;;;;18.87;16.63;;;;;;;;;;5012702;28;20417;-73
2021/09/09 04:10:17;;;;;;;18.67;16.67;;;;;;;;;;5016190;28;20901;-76
2021/09/09 04:12:43;;;;;;;19.63;17.57;;;;;;;;;;5016128;28;20994;-75
2021/09/09 04:15:09;;;;;;;21.30;16.37;;;;;;;;;;5020010;28;20411;-74
2021/09/09 04:17:35;;;;;;;23.33;17.30;;;;;;;;;;5035500;28;20411;-74
2021/09/09 04:20:02;;;;;;;20.00;17.80;;;;;;;;;;5026078;28;20558;-73
2021/09/09 04:22:28;;;;;;;19.70;17.27;;;;;;;;;;5034492;28;20882;-73
2021/09/09 04:24:54;;;;;;;19.47;17.47;;;;;;;;;;5016054;28;20422;-74
2021/09/09 04:27:22;;;;;;;18.83;16.93;;;;;;;;;;5015843;28;20473;-74
2021/09/09 04:29:49;;;;;;;20.23;17.87;;;;;;;;;;5022547;28;20437;-76
2021/09/09 04:32:14;;;;;;;20.00;17.47;;;;;;;;;;5014534;28;20471;-77
2021/09/09 04:34:40;;;;;;;22.17;17.30;;;;;;;;;;5015632;28;20964;-75
2021/09/09 04:37:06;;;;;;;19.40;17.40;;;;;;;;;;5015371;28;20419;-74
2021/09/09 04:39:32;;;;;;;18.27;16.40;;;;;;;;;;5015525;28;20435;-74
2021/09/09 04:41:58;;;;;;;21.13;17.93;;;;;;;;;;5015753;28;20924;-73
2021/09/09 04:44:25;;;;;;;19.20;17.13;;;;;;;;;;5015487;28;20432;-77
2021/09/09 04:46:51;;;;;;;18.70;16.70;;;;;;;;;;5015316;28;20421;-76
2021/09/09 04:49:17;;;;;;;18.97;17.10;;;;;;;;;;5015227;28;20506;-76
2021/09/09 04:51:43;;;;;;;20.47;18.37;;;;;;;;;;5015858;28;20464;-74
2021/09/09 04:54:09;;;;;;;18.30;16.40;;;;;;;;;;5015468;28;20830;-75
2021/09/09 04:56:35;;;;;;;20.23;18.13;;;;;;;;;;5015017;28;20509;-76
2021/09/09 04:59:01;;;;;;;21.03;17.73;;;;;;;;;;5015183;28;20469;-75
2021/09/09 05:01:27;;;;;;;20.33;17.43;;;;;;;;;;5015564;28;20450;-76
2021/09/09 05:03:53;;;;;;;22.20;19.37;;;;;;;;;;5013695;28;20432;-75
2021/09/09 05:06:19;;;;;;;20.70;18.60;;;;;;;;;;5015254;28;20814;-74
2021/09/09 05:08:45;;;;;;;22.23;17.97;;;;;;;;;;5014683;28;20811;-74
2021/09/09 05:11:12;;;;;;;20.70;18.50;;;;;;;;;;5015179;28;20461;-72
2021/09/09 05:13:40;;;;;;;21.67;18.70;;;;;;;;;;5015348;28;20412;-75
2021/09/09 05:16:06;;;;;;;22.57;19.27;;;;;;;;;;5027158;28;20807;-75
2021/09/09 05:18:32;;;;;;;21.97;19.60;;;;;;;;;;5028970;28;20798;-75
2021/09/09 05:20:58;;;;;;;21.47;19.17;;;;;;;;;;5037224;28;20874;-73
2021/09/09 05:23:24;;;;;;;21.60;19.30;;;;;;;;;;5017673;28;20424;-73
2021/09/09 05:25:50;;;;;;;21.97;19.67;;;;;;;;;;5014818;28;20771;-74
2021/09/09 05:28:16;;;;;;;23.40;19.40;;;;;;;;;;5014384;28;20779;-74
2021/09/09 05:30:42;;;;;;;21.30;19.20;;;;;;;;;;5021511;28;20422;-75
2021/09/09 05:33:08;;;;;;;21.50;19.20;;;;;;;;;;5014610;28;20464;-75
2021/09/09 05:35:34;;;;;;;22.83;20.27;;;;;;;;;;5014730;28;20415;-73
2021/09/09 05:38:00;;;;;;;22.13;19.73;;;;;;;;;;5014243;28;20428;-73
2021/09/09 05:40:27;;;;;;;22.67;20.50;;;;;;;;;;5014808;28;20412;-76
2021/09/09 05:42:53;;;;;;;22.40;20.03;;;;;;;;;;5014758;28;20424;-76
2021/09/09 05:45:19;;;;;;;22.07;18.90;;;;;;;;;;5014421;28;20420;-73
2021/09/09 05:47:45;;;;;;;24.50;21.00;;;;;;;;;;5013954;28;20417;-73
2021/09/09 05:50:12;;;;;;;21.67;19.43;;;;;;;;;;5014228;28;20926;-75
2021/09/09 05:52:38;;;;;;;22.10;19.80;;;;;;;;;;5027259;28;20530;-74
2021/09/09 05:55:04;;;;;;;25.80;20.20;;;;;;;;;;5014602;28;20424;-74
2021/09/09 05:57:30;;;;;;;23.40;21.03;;;;;;;;;;5027324;28;20406;-72
2021/09/09 05:59:56;;;;;;;23.60;21.13;;;;;;;;;;5014690;28;20834;-74
2021/09/09 06:02:27;;;;;;;23.60;21.20;;;;;;;;;;5027081;28;20507;-74
2021/09/09 06:04:55;;;;;;;23.13;20.80;;;;;;;;;;5014314;28;20417;-74
2021/09/09 06:07:21;;;;;;;22.50;20.20;;;;;;;;;;5013670;28;20460;-72
2021/09/09 06:09:47;;;;;;;22.20;19.83;;;;;;;;;;5014176;28;20449;-74
2021/09/09 06:12:13;;;;;;;26.07;20.90;;;;;;;;;;5013872;28;20468;-74
2021/09/09 06:14:39;;;;;;;23.43;21.00;;;;;;;;;;5013949;28;20432;-74
2021/09/09 06:17:05;;;;;;;25.00;21.03;;;;;;;;;;5032831;28;20412;-71
2021/09/09 06:19:32;;;;;;;24.67;21.27;;;;;;;;;;5018360;28;20507;-76
2021/09/09 06:21:58;;;;;;;23.80;20.93;;;;;;;;;;5040875;28;20429;-74
2021/09/09 06:24:24;;;;;;;25.00;20.50;;;;;;;;;;5013724;28;20416;-74
2021/09/09 06:26:50;;;;;;;23.20;20.80;;;;;;;;;;5013457;28;20421;-76
2021/09/09 06:29:16;;;;;;;22.70;20.37;;;;;;;;;;5018863;28;20936;-76
2021/09/09 06:31:42;;;;;;;25.83;22.53;;;;;;;;;;5013515;28;20558;-75
2021/09/09 06:34:08;;;;;;;22.63;20.33;;;;;;;;;;5013739;28;20414;-75
2021/09/09 06:36:34;;;;;;;24.83;21.27;;;;;;;;;;5013011;28;20414;-75
2021/09/09 06:39:01;;;;;;;26.27;20.83;;;;;;;;;;5013505;28;20433;-74
2021/09/09 06:41:27;;;;;;;28.80;21.63;;;;;;;;;;5013402;28;20421;-76
2021/09/09 06:43:53;;;;;;;23.10;19.70;;;;;;;;;;5013377;28;20433;-73
2021/09/09 06:46:19;;;;;;;25.23;20.87;;;;;;;;;;5013272;28;20406;-74
2021/09/09 06:48:46;;;;;;;23.43;20.90;;;;;;;;;;5012854;28;20436;-75
2021/09/09 06:51:12;;;;;;;25.00;21.27;;;;;;;;;;5013214;28;20461;-75
2021/09/09 06:53:38;;;;;;;22.30;19.37;;;;;;;;;;5013350;28;20497;-74
2021/09/09 06:56:04;;;;;;;24.50;21.07;;;;;;;;;;5013088;28;20452;-73
2021/09/09 06:58:30;;;;;;;23.40;20.37;;;;;;;;;;5012816;28;20436;-74
2021/09/09 07:00:56;;;;;;;23.50;21.10;;;;;;;;;;5012956;28;20425;-75
2021/09/09 07:03:24;;;;;;;23.70;20.23;;;;;;;;;;5013521;28;20423;-73
2021/09/09 07:05:50;;;;;;;22.47;19.80;;;;;;;;;;5019810;28;20526;-76
2021/09/09 07:08:16;;;;;;;22.37;20.07;;;;;;;;;;5031036;28;20472;-74
2021/09/09 07:10:42;;;;;;;23.57;21.17;;;;;;;;;;5013092;28;20446;-74
2021/09/09 07:13:08;;;;;;;22.90;20.50;;;;;;;;;;5012878;28;20469;-73
2021/09/09 07:15:34;;;;;;;23.03;20.30;;;;;;;;;;5011987;28;20445;-76
2021/09/09 07:18:00;;;;;;;24.30;19.97;;;;;;;;;;5012839;28;20418;-74
2021/09/09 07:20:26;;;;;;;25.13;19.90;;;;;;;;;;5020353;28;20424;-73
2021/09/09 07:22:53;;;;;;;21.80;19.40;;;;;;;;;;5032669;28;20486;-75
2021/09/09 07:25:19;;;;;;;22.50;20.23;;;;;;;;;;5032808;28;20991;-74
2021/09/09 07:27:45;;;;;;;24.50;19.40;;;;;;;;;;5032291;28;20909;-72
2021/09/09 07:30:11;;;;;;;21.83;19.53;;;;;;;;;;5032641;28;20440;-74
2021/09/09 07:32:37;;;;;;;21.93;19.53;;;;;;;;;;5032652;28;20920;-75
2021/09/09 07:35:04;;;;;;;22.87;20.57;;;;;;;;;;5032572;28;20412;-74
2021/09/09 07:37:30;;;;;;;22.80;20.40;;;;;;;;;;5032265;28;20421;-74
2021/09/09 07:39:56;;;;;;;22.00;19.67;;;;;;;;;;5032600;28;20466;-75
2021/09/09 07:42:22;;;;;;;21.90;19.80;;;;;;;;;;5032370;28;20452;-73
2021/09/09 07:44:49;;;;;;;22.67;19.53;;;;;;;;;;5035938;28;20906;-75
2021/09/09 07:47:15;;;;;;;21.70;19.50;;;;;;;;;;5035785;28;20428;-73
2021/09/09 07:49:41;;;;;;;22.30;19.90;;;;;;;;;;5035067;28;20874;-74
2021/09/09 07:52:07;;;;;;;22.10;18.10;;;;;;;;;;5034766;28;20478;-74
2021/09/09 07:54:33;;;;;;;22.00;18.73;;;;;;;;;;5036340;28;20416;-73
2021/09/09 07:56:59;;;;;;;20.33;18.30;;;;;;;;;;5019180;28;20417;-74
2021/09/09 07:59:26;;;;;;;21.53;19.30;;;;;;;;;;5016295;28;20437;-76
2021/09/09 08:01:52;;;;;;;21.57;19.27;;;;;;;;;;5016261;28;20468;-75
2021/09/09 08:04:18;;;;;;;20.30;18.20;;;;;;;;;;5016371;28;20850;-74
2021/09/09 08:06:44;;;;;;;22.37;17.60;;;;;;;;;;5015666;28;20531;-74
2021/09/09 08:09:11;;;;;;;21.63;18.80;;;;;;;;;;5016020;28;20491;-76
2021/09/09 08:11:37;;;;;;;19.90;17.90;;;;;;;;;;5015875;28;20889;-74
2021/09/09 08:14:03;;;;;;;19.50;17.60;;;;;;;;;;5016169;28;20413;-75
2021/09/09 08:16:29;;;;;;;19.47;17.47;;;;;;;;;;5030820;28;20459;-74
2021/09/09 08:18:55;;;;;;;21.00;18.80;;;;;;;;;;5027409;28;20437;-72
2021/09/09 08:21:21;;;;;;;19.80;17.73;;;;;;;;;;5030408;28;20428;-72
2021/09/09 08:23:47;;;;;;;21.70;18.27;;;;;;;;;;5035671;28;20447;-74
2021/09/09 08:26:13;;;;;;;19.20;17.30;;;;;;;;;;5035566;28;20459;-71
2021/09/09 08:28:40;;;;;;;19.47;17.57;;;;;;;;;;5035164;28;20444;-72
2021/09/09 08:31:06;;;;;;;18.63;16.63;;;;;;;;;;5020548;28;20890;-75
2021/09/09 08:33:33;;;;;;;18.30;16.60;;;;;;;;;;5015711;28;20410;-74
2021/09/09 08:36:09;;;;;;;19.20;17.20;;;;;;;;;;5015540;28;20429;-72
2021/09/09 08:38:35;;;;;;;24.20;16.90;;;;;;;;;;5015231;28;20433;-75
2021/09/09 08:41:02;;;;;;;22.43;17.87;;;;;;;;;;5015630;28;20497;-73
2021/09/09 08:43:28;;;;;;;18.20;16.30;;;;;;;;;;5015309;28;20448;-74
2021/09/09 08:45:54;;;;;;;17.57;15.93;;;;;;;;;;5015374;28;20426;-73
2021/09/09 08:48:20;;;;;;;17.00;15.40;;;;;;;;;;5015451;28;20775;-74
2021/09/09 08:50:47;;;;;;;17.40;15.47;;;;;;;;;;5015738;28;20495;-74
2021/09/09 08:53:15;;;;;;;16.07;14.50;;;;;;;;;;5015456;28;20496;-75
2021/09/09 08:55:43;;;;;;;16.53;14.90;;;;;;;;;;5015179;28;20869;-74
2021/09/09 08:58:09;;;;;;;20.70;18.50;;;;;;;;;;5015034;28;20917;-75
2021/09/09 09:00:35;;;;;;;18.10;16.00;;;;;;;;;;5015279;28;20421;-73
2021/09/09 09:03:01;;;;;;;21.03;16.37;;;;;;;;;;5015366;28;20866;-73
2021/09/09 09:05:27;;;;;;;17.30;15.57;;;;;;;;;;5014977;28;20468;-74
2021/09/09 09:08:00;;;;;;;17.00;14.93;;;;;;;;;;5014652;28;20459;-72
2021/09/09 09:10:27;;;;;;;17.73;15.43;;;;;;;;;;5015226;28;20475;-74
2021/09/09 09:12:53;;;;;;;14.10;12.90;;;;;;;;;;5014981;28;20461;-73
2021/09/09 09:15:20;;;;;;;15.77;14.17;;;;;;;;;;5020384;28;20466;-75
2021/09/09 09:17:53;;;;;;;14.40;12.90;;;;;;;;;;5034310;28;20412;-73
2021/09/09 09:20:20;;;;;;;14.33;12.43;;;;;;;;;;5015176;28;20430;-73
2021/09/09 09:22:46;;;;;;;15.23;13.63;;;;;;;;;;5014789;28;20444;-76
2021/09/09 09:25:13;;;;;;;14.77;13.27;;;;;;;;;;5014939;28;20760;-72
2021/09/09 09:27:46;;;;;;;13.87;12.67;;;;;;;;;;5014233;28;20478;-73
2021/09/09 09:30:13;;;;;;;12.93;11.73;;;;;;;;;;5021650;28;20922;-74
2021/09/09 09:32:49;;;;;;;12.20;11.10;;;;;;;;;;5014233;28;20468;-73
2021/09/09 09:35:17;;;;;;;12.30;11.07;;;;;;;;;;5014852;28;20421;-73
2021/09/09 09:37:50;;;;;;;13.93;11.23;;;;;;;;;;5014030;28;20421;-73
2021/09/09 09:40:27;;;;;;;13.43;12.23;;;;;;;;;;5014462;28;20444;-72
2021/09/09 09:42:54;;;;;;;11.80;10.70;;;;;;;;;;5014482;28;20410;-71
2021/09/09 09:45:20;;;;;;;12.77;11.77;;;;;;;;;;5014355;28;20504;-73
2021/09/09 09:47:46;;;;;;;28.77;25.80;;;;;;;;;;5013801;28;20453;-74
2021/09/09 09:50:19;;;;;;;13.50;12.30;;;;;;;;;;5014195;28;20448;-72
2021/09/09 09:52:46;;;;;;;16.03;14.73;;;;;;;;;;5014098;28;20457;-72
2021/09/09 09:55:12;;;;;;;13.97;12.60;;;;;;;;;;5014278;28;20456;-75
2021/09/09 09:57:54;;;;;;;12.13;11.03;;;;;;;;;;5013652;28;20468;-73
2021/09/09 10:00:21;;;;;;;14.70;13.50;;;;;;;;;;5014202;28;20414;-74
2021/09/09 10:02:47;;;;;;;14.27;13.17;;;;;;;;;;5014072;28;20414;-72
2021/09/09 10:05:13;;;;;;;12.43;11.43;;;;;;;;;;5014090;28;20595;-74
2021/09/09 10:07:39;;;;;;;11.13;10.10;;;;;;;;;;5013189;28;20425;-74
2021/09/09 10:10:06;;;;;;;11.77;10.60;;;;;;;;;;5013917;28;20628;-72
2021/09/09 10:12:32;;;;;;;10.47;9.67;;;;;;;;;;5013733;28;20461;-72
2021/09/09 10:15:00;;;;;;;13.00;10.80;;;;;;;;;;5015844;28;20428;-75
2021/09/09 10:17:27;;;;;;;10.87;10.00;;;;;;;;;;5033287;28;20413;-72
2021/09/09 10:19:53;;;;;;;11.53;10.67;;;;;;;;;;5032294;28;20451;-75
2021/09/09 10:22:20;;;;;;;10.90;9.80;;;;;;;;;;5033262;28;20500;-74
2021/09/09 10:24:47;;;;;;;10.07;9.27;;;;;;;;;;5033185;28;20921;-73
2021/09/09 10:27:17;;;;;;;11.17;10.07;;;;;;;;;;5033326;28;20423;-74
2021/09/09 10:29:46;;;;;;;10.93;10.00;;;;;;;;;;5029915;28;20445;-72
2021/09/09 10:32:31;;;;;;;18.13;16.73;;;;;;;;;;5013497;28;20485;-73
2021/09/09 10:35:18;;;;;;;14.60;13.47;;;;;;;;;;5013582;28;20492;-71
2021/09/09 10:37:47;;;;;;;15.90;14.50;;;;;;;;;;5013077;28;20441;-74
2021/09/09 10:40:32;;;;;;;10.50;9.70;;;;;;;;;;5013415;28;20429;-74
2021/09/09 10:42:59;;;;;;;11.33;10.30;;;;;;;;;;5013309;28;20775;-75
2021/09/09 10:45:34;;;;;;;11.00;10.10;;;;;;;;;;5013444;28;20418;-74
2021/09/09 10:48:01;;;;;;;10.93;9.93;;;;;;;;;;5011927;28;20950;-75
2021/09/09 10:50:27;;;;;;;10.63;9.70;;;;;;;;;;5013276;28;20907;-74
2021/09/09 10:53:04;;;;;;;11.40;10.40;;;;;;;;;;5013352;28;20473;-74
2021/09/09 10:55:30;;;;;;;9.77;8.70;;;;;;;;;;5013289;28;20413;-73
2021/09/09 10:58:12;;;;;;;10.23;9.50;;;;;;;;;;5012892;28;20412;-72
2021/09/09 11:00:54;;;;;;;11.00;10.27;;;;;;;;;;5012977;28;20409;-72
2021/09/09 11:03:38;;;;;;;9.80;9.00;;;;;;;;;;5013093;28;20421;-73
2021/09/09 11:06:05;;;;;;;10.10;9.23;;;;;;;;;;5021298;28;20428;-74
2021/09/09 11:08:31;;;;;;;8.97;8.37;;;;;;;;;;5030562;28;20841;-73
2021/09/09 11:10:57;;;;;;;9.63;8.87;;;;;;;;;;5013151;28;20410;-75
2021/09/09 11:13:24;;;;;;;9.30;8.50;;;;;;;;;;5012915;28;20611;-72
2021/09/09 11:15:50;;;;;;;10.07;9.47;;;;;;;;;;5021921;28;20412;-74
2021/09/09 11:18:43;;;;;;;9.50;8.80;;;;;;;;;;5031195;28;20952;-73
2021/09/09 11:21:09;;;;;;;9.60;8.80;;;;;;;;;;5028260;28;20440;-72
2021/09/09 11:23:36;;;;;;;9.37;8.70;;;;;;;;;;5022285;28;20921;-72
2021/09/09 11:26:13;;;;;;;9.60;8.60;;;;;;;;;;5036878;28;20569;-72
2021/09/09 11:28:39;;;;;;;10.10;9.30;;;;;;;;;;5036293;28;20774;-72
2021/09/09 11:31:13;;;;;;;9.60;8.90;;;;;;;;;;5021850;28;20469;-72
2021/09/09 11:33:55;;;;;;;11.30;10.33;;;;;;;;;;5016706;28;20414;-74
2021/09/09 11:36:25;;;;;;;11.30;10.57;;;;;;;;;;5016699;28;20441;-73
2021/09/09 11:38:52;;;;;;;11.37;10.37;;;;;;;;;;5016350;28;20480;-73
2021/09/09 11:41:19;;;;;;;9.90;8.43;;;;;;;;;;5016728;28;20421;-73
2021/09/09 11:43:50;;;;;;;10.50;9.70;;;;;;;;;;5016690;28;20452;-75
2021/09/09 11:46:28;;;;;;;12.07;11.17;;;;;;;;;;5016602;28;20421;-74
2021/09/09 11:48:55;;;;;;;10.30;9.63;;;;;;;;;;5015928;28;20437;-74
2021/09/09 11:51:38;;;;;;;16.07;14.87;;;;;;;;;;5016615;28;20985;-76
2021/09/09 11:54:15;;;;;;;13.17;12.27;;;;;;;;;;5016425;28;20416;-74
2021/09/09 11:56:41;;;;;;;9.97;9.03;;;;;;;;;;5016121;28;20447;-73
2021/09/09 11:59:17;;;;;;;9.60;9.00;;;;;;;;;;5016266;28;20444;-74
2021/09/09 12:01:43;;;;;;;10.47;9.47;;;;;;;;;;5016422;28;20516;-75
2021/09/09 12:04:10;;;;;;;11.60;10.90;;;;;;;;;;5016275;28;20417;-73
2021/09/09 12:06:38;;;;;;;11.47;10.67;;;;;;;;;;5015918;28;20440;-73
2021/09/09 12:09:04;;;;;;;11.03;10.03;;;;;;;;;;5015837;28;20798;-72
2021/09/09 12:11:34;;;;;;;14.37;11.43;;;;;;;;;;5016142;28;20468;-72
2021/09/09 12:14:15;;;;;;;10.33;9.50;;;;;;;;;;5022484;28;20412;-73
2021/09/09 12:16:41;;;;;;;9.87;9.07;;;;;;;;;;5015847;28;20547;-75
2021/09/09 12:19:10;;;;;;;10.23;9.27;;;;;;;;;;5015805;28;20946;-72
2021/09/09 12:21:36;;;;;;;10.77;10.03;;;;;;;;;;5032549;28;20507;-74
2021/09/09 12:24:11;;;;;;;9.20;8.60;;;;;;;;;;5035668;28;20963;-72
2021/09/09 12:26:39;;;;;;;10.33;9.43;;;;;;;;;;5035511;28;20777;-72
2021/09/09 12:29:19;;;;;;;9.73;8.97;;;;;;;;;;5034888;28;20432;-70
2021/09/09 12:31:45;;;;;;;9.10;8.43;;;;;;;;;;5034093;28;21034;-72
2021/09/09 12:34:11;;;;;;;9.27;8.57;;;;;;;;;;5035383;28;20886;-72
2021/09/09 12:36:41;;;;;;;9.53;8.83;;;;;;;;;;5035323;28;20411;-74
2021/09/09 12:39:07;;;;;;;9.20;8.50;;;;;;;;;;5035241;28;20439;-74
2021/09/09 12:41:33;;;;;;;9.53;8.70;;;;;;;;;;5035304;28;20456;-73
2021/09/09 12:43:59;;;;;;;9.60;8.87;;;;;;;;;;5035253;28;20421;-72
2021/09/09 12:46:31;;;;;;;10.37;8.77;;;;;;;;;;5035236;28;20417;-72
2021/09/09 12:49:07;;;;;;;8.40;7.90;;;;;;;;;;5034874;28;20439;-74
2021/09/09 12:51:34;;;;;;;10.37;8.40;;;;;;;;;;5035151;28;20859;-72
2021/09/09 12:53:59;;;;;;;8.83;8.23;;;;;;;;;;5035168;28;20412;-74
2021/09/09 12:56:26;;;;;;;9.47;8.77;;;;;;;;;;5023534;28;20410;-73
2021/09/09 12:58:52;;;;;;;9.00;8.40;;;;;;;;;;5014776;28;20795;-73
2021/09/09 13:01:18;;;;;;;9.00;8.40;;;;;;;;;;5015065;28;20421;-71
2021/09/09 13:03:44;;;;;;;10.17;9.33;;;;;;;;;;5015052;28;20414;-74
2021/09/09 13:06:10;;;;;;;8.70;8.00;;;;;;;;;;5015059;28;20429;-74
2021/09/09 13:08:37;;;;;;;9.50;8.80;;;;;;;;;;5014769;28;20441;-73
2021/09/09 13:11:03;;;;;;;9.27;8.57;;;;;;;;;;5025063;28;20762;-75
2021/09/09 13:13:31;;;;;;;8.50;7.80;;;;;;;;;;5034520;28;20515;-74
2021/09/09 13:15:57;;;;;;;9.13;8.43;;;;;;;;;;5018179;28;20984;-75
2021/09/09 13:18:24;;;;;;;8.70;8.00;;;;;;;;;;5014563;28;20441;-72
2021/09/09 13:20:50;;;;;;;10.00;9.10;;;;;;;;;;5025392;28;20452;-73
2021/09/09 13:23:16;;;;;;;9.33;7.93;;;;;;;;;;5034597;28;20424;-75
2021/09/09 13:25:42;;;;;;;11.10;10.00;;;;;;;;;;5033140;28;20424;-73
2021/09/09 13:28:08;;;;;;;9.50;8.70;;;;;;;;;;5033987;28;20916;-74
2021/09/09 13:30:35;;;;;;;9.73;8.93;;;;;;;;;;5024220;28;20817;-73
2021/09/09 13:33:01;;;;;;;9.67;8.97;;;;;;;;;;5013261;28;20461;-71
2021/09/09 13:35:28;;;;;;;11.03;9.93;;;;;;;;;;5014477;28;20441;-72
2021/09/09 13:37:54;;;;;;;10.17;9.37;;;;;;;;;;5014052;28;20421;-74
2021/09/09 13:40:20;;;;;;;8.10;7.50;;;;;;;;;;5014297;28;20493;-72
2021/09/09 13:42:46;;;;;;;8.57;7.87;;;;;;;;;;5013983;28;20878;-75
2021/09/09 13:45:12;;;;;;;8.33;7.60;;;;;;;;;;5014548;28;20791;-74
2021/09/09 13:47:38;;;;;;;8.43;7.73;;;;;;;;;;5014055;28;20467;-75
2021/09/09 13:50:05;;;;;;;8.90;8.10;;;;;;;;;;5014163;28;20787;-72
2021/09/09 13:52:31;;;;;;;9.70;8.70;;;;;;;;;;5014351;28;20453;-74
2021/09/09 13:54:57;;;;;;;12.40;9.67;;;;;;;;;;5014208;28;20417;-75
2021/09/09 13:57:23;;;;;;;8.13;7.53;;;;;;;;;;5013661;28;20421;-72
2021/09/09 13:59:49;;;;;;;8.23;7.40;;;;;;;;;;5014071;28;20430;-74
2021/09/09 14:02:17;;;;;;;8.87;8.17;;;;;;;;;;5013980;28;20936;-75
2021/09/09 14:04:43;;;;;;;9.00;8.20;;;;;;;;;;5014220;28;20471;-73
2021/09/09 14:07:09;;;;;;;8.83;8.03;;;;;;;;;;5013508;28;20433;-75
2021/09/09 14:09:35;;;;;;;10.60;8.23;;;;;;;;;;5013969;28;20436;-75
2021/09/09 14:12:01;;;;;;;11.40;7.60;;;;;;;;;;5013595;28;20819;-74
2021/09/09 14:14:28;;;;;;;8.90;8.13;;;;;;;;;;5013801;28;20437;-76
2021/09/09 14:16:54;;;;;;;12.90;11.77;;;;;;;;;;5031099;28;20496;-74
2021/09/09 14:19:20;;;;;;;9.23;8.47;;;;;;;;;;5033507;28;20528;-77
2021/09/09 14:21:46;;;;;;;9.23;8.43;;;;;;;;;;5033337;28;20759;-73